Maersk Bulan — 9V7693 — position and weather

sailwx.info

Track history (hours):
 
Tides and Currents Weather Stations Pressure Air Temp Water Temp Dewpoint Dewpoint Depression Visibility Wind Speed Wind Dir Waves Ship Positions

Maersk Bulan

Last reported at 2015-Aug-15 12:11 UTC. Time now 2015-Sep-01 07:58 UTC.
Position N 34°27' W 025°22'.
Warning: this ship's position is 16 days out of date.

Length 223 m; draft 10.4 m.

Type: Ship (hazmat cat A). MMSI: 563455000.

Date/timePositionNaut miles runAvg speedWind from/ knotsBaromVisibWave heightAir tempDewpointWater temp
2015-Aug-15 12:11N 34°27' W 025°22'1911.5
2015-Aug-15 10:33N 34°31' W 024°59'1111.4
2015-Aug-15 09:33N 34°33' W 024°46'1111.3
2015-Aug-15 08:33N 34°35' W 024°32'1111.2
2015-Aug-15 07:33N 34°37' W 024°19'1211.3
2015-Aug-15 06:31N 34°39' W 024°05'1311.4
2015-Aug-15 05:22N 34°41' W 023°49'911.1
2015-Aug-15 04:33N 34°43' W 023°38'1111.3
2015-Aug-15 03:33N 34°45' W 023°25'1311.4
2015-Aug-15 02:22N 34°47' W 023°09'1011.4
2015-Aug-15 01:29N 34°49' W 022°57'1111.4
2015-Aug-15 00:33N 34°51' W 022°44'1711.5
2015-Aug-14 23:05N 34°54' W 022°23'611.5
2015-Aug-14 22:31N 34°55' W 022°16'  
2015-Aug-12 10:33N 35°56' W 008°21'2311.4
2015-Aug-12 08:33N 35°57' W 007°53'1211.8
2015-Aug-12 07:33N 35°57' W 007°38'1111.5
2015-Aug-12 06:33N 35°57' W 007°24'1111.1
2015-Aug-12 05:31N 35°57' W 007°10'1111.1
2015-Aug-12 04:33N 35°58' W 006°57'1110.9
2015-Aug-12 03:33N 35°57' W 006°44'1110.9
2015-Aug-12 02:32N 35°58' W 006°30'  
2015-Aug-09 14:32N 36°34' W 000°34'2613.0
2015-Aug-09 12:33N 36°39' W 000°03'1312.7
2015-Aug-09 11:31N 36°39' E 000°14'1712.9
2015-Aug-09 10:13N 36°42' E 000°34'1012.7
2015-Aug-09 09:23N 36°44' E 000°47'1012.1
2015-Aug-09 08:33N 36°46' E 000°60'1312.6
2015-Aug-09 07:33N 36°48' E 001°15'5313.3
2015-Aug-09 03:32N 36°55' E 002°21'4312.9
2015-Aug-09 00:11N 37°02' E 003°15'912.3
2015-Aug-08 23:28N 37°03' E 003°26'1112.3
2015-Aug-08 22:33N 37°05' E 003°39'1412.5
2015-Aug-08 21:25N 37°07' E 003°57'1112.4
2015-Aug-08 20:32N 37°09' E 004°11'1812.7
2015-Aug-08 19:06N 37°11' E 004°33'712.6
2015-Aug-08 18:31N 37°13' E 004°42'2512.7
2015-Aug-08 16:33N 37°17' E 005°13'1313.1
2015-Aug-08 15:33N 37°19' E 005°30'1313.5
2015-Aug-08 14:33N 37°21' E 005°46'1414.1
2015-Aug-08 13:33N 37°23' E 006°04'1414.2
2015-Aug-08 12:32N 37°25' E 006°22'1414.2
2015-Aug-08 11:33N 37°27' E 006°39'9412.9
2015-Aug-08 04:15N 37°41' E 008°37'912.6
2015-Aug-08 03:34N 37°43' E 008°47'1212.1
2015-Aug-08 02:33N 37°44' E 009°03'1311.8
2015-Aug-08 01:28N 37°43' E 009°19'1212.5
2015-Aug-08 00:33N 37°42' E 009°33'1212.5
2015-Aug-07 23:33N 37°40' E 009°49'1212.3
2015-Aug-07 22:33N 37°39' E 010°04'1212.0
2015-Aug-07 21:33N 37°38' E 010°19'1212.2
2015-Aug-07 20:33N 37°35' E 010°34'1212.4
2015-Aug-07 19:33N 37°32' E 010°50'1212.2
2015-Aug-07 18:33N 37°29' E 011°04'1211.9
2015-Aug-07 17:33N 37°24' E 011°18'1312.3
2015-Aug-07 16:32N 37°18' E 011°32'1212.5
2015-Aug-07 15:33N 37°11' E 011°45'1212.3
2015-Aug-07 14:33N 37°05' E 011°58'1211.7
2015-Aug-07 13:33N 36°59' E 012°11'1212.1
2015-Aug-07 12:33N 36°56' E 012°25'1212.1
2015-Aug-07 11:33N 36°53' E 012°40'1312.5
2015-Aug-07 10:33N 36°49' E 012°55'1212.3
2015-Aug-07 09:33N 36°46' E 013°10'1211.8
2015-Aug-07 08:33N 36°42' E 013°24'1211.9
2015-Aug-07 07:33N 36°39' E 013°38'1211.9
2015-Aug-07 06:33N 36°37' E 013°52'1212.2
2015-Aug-07 05:33N 36°32' E 014°07'1212.3
2015-Aug-07 04:33N 36°29' E 014°22'1212.0
2015-Aug-07 03:33N 36°25' E 014°35'1211.8
2015-Aug-07 02:33N 36°22' E 014°49'1212.1
2015-Aug-07 01:33N 36°20' E 015°04'1212.2
2015-Aug-07 00:33N 36°20' E 015°20'1211.7
2015-Aug-06 23:33N 36°20' E 015°34'1211.7
2015-Aug-06 22:33N 36°19' E 015°49'  
Track history (hours):
 
Tides and Currents Weather Stations Pressure Air Temp Water Temp Dewpoint Dewpoint Depression Visibility Wind Speed Wind Dir Waves Ship Positions

Maersk Bulan

Last reported at 2015-Aug-15 12:11 UTC. Time now 2015-Sep-01 07:58 UTC.
Position N 34°27' W 025°22'.
Warning: this ship's position is 16 days out of date.

Length 223 m; draft 10.4 m.

Type: Ship (hazmat cat A). MMSI: 563455000.

Date/timePositionNaut miles runAvg speedWind from/ knotsBaromVisibWave heightAir tempDewpointWater temp
2015-Aug-15 12:11N 34°27' W 025°22'1911.5
2015-Aug-15 10:33N 34°31' W 024°59'1111.4
2015-Aug-15 09:33N 34°33' W 024°46'1111.3
2015-Aug-15 08:33N 34°35' W 024°32'1111.2
2015-Aug-15 07:33N 34°37' W 024°19'1211.3
2015-Aug-15 06:31N 34°39' W 024°05'1311.4
2015-Aug-15 05:22N 34°41' W 023°49'911.1
2015-Aug-15 04:33N 34°43' W 023°38'1111.3
2015-Aug-15 03:33N 34°45' W 023°25'1311.4
2015-Aug-15 02:22N 34°47' W 023°09'1011.4
2015-Aug-15 01:29N 34°49' W 022°57'1111.4
2015-Aug-15 00:33N 34°51' W 022°44'1711.5
2015-Aug-14 23:05N 34°54' W 022°23'611.5
2015-Aug-14 22:31N 34°55' W 022°16'  
2015-Aug-12 10:33N 35°56' W 008°21'2311.4
2015-Aug-12 08:33N 35°57' W 007°53'1211.8
2015-Aug-12 07:33N 35°57' W 007°38'1111.5
2015-Aug-12 06:33N 35°57' W 007°24'1111.1
2015-Aug-12 05:31N 35°57' W 007°10'1111.1
2015-Aug-12 04:33N 35°58' W 006°57'1110.9
2015-Aug-12 03:33N 35°57' W 006°44'1110.9
2015-Aug-12 02:32N 35°58' W 006°30'  
2015-Aug-09 14:32N 36°34' W 000°34'2613.0
2015-Aug-09 12:33N 36°39' W 000°03'1312.7
2015-Aug-09 11:31N 36°39' E 000°14'1712.9
2015-Aug-09 10:13N 36°42' E 000°34'1012.7
2015-Aug-09 09:23N 36°44' E 000°47'1012.1
2015-Aug-09 08:33N 36°46' E 000°60'1312.6
2015-Aug-09 07:33N 36°48' E 001°15'5313.3
2015-Aug-09 03:32N 36°55' E 002°21'4312.9
2015-Aug-09 00:11N 37°02' E 003°15'912.3
2015-Aug-08 23:28N 37°03' E 003°26'1112.3
2015-Aug-08 22:33N 37°05' E 003°39'1412.5
2015-Aug-08 21:25N 37°07' E 003°57'1112.4
2015-Aug-08 20:32N 37°09' E 004°11'1812.7
2015-Aug-08 19:06N 37°11' E 004°33'712.6
2015-Aug-08 18:31N 37°13' E 004°42'2512.7
2015-Aug-08 16:33N 37°17' E 005°13'1313.1
2015-Aug-08 15:33N 37°19' E 005°30'1313.5
2015-Aug-08 14:33N 37°21' E 005°46'1414.1
2015-Aug-08 13:33N 37°23' E 006°04'1414.2
2015-Aug-08 12:32N 37°25' E 006°22'1414.2
2015-Aug-08 11:33N 37°27' E 006°39'9412.9
2015-Aug-08 04:15N 37°41' E 008°37'912.6
2015-Aug-08 03:34N 37°43' E 008°47'1212.1
2015-Aug-08 02:33N 37°44' E 009°03'1311.8
2015-Aug-08 01:28N 37°43' E 009°19'1212.5
2015-Aug-08 00:33N 37°42' E 009°33'1212.5
2015-Aug-07 23:33N 37°40' E 009°49'1212.3
2015-Aug-07 22:33N 37°39' E 010°04'1212.0
2015-Aug-07 21:33N 37°38' E 010°19'1212.2
2015-Aug-07 20:33N 37°35' E 010°34'1212.4
2015-Aug-07 19:33N 37°32' E 010°50'1212.2
2015-Aug-07 18:33N 37°29' E 011°04'1211.9
2015-Aug-07 17:33N 37°24' E 011°18'1312.3
2015-Aug-07 16:32N 37°18' E 011°32'1212.5
2015-Aug-07 15:33N 37°11' E 011°45'1212.3
2015-Aug-07 14:33N 37°05' E 011°58'1211.7
2015-Aug-07 13:33N 36°59' E 012°11'1212.1
2015-Aug-07 12:33N 36°56' E 012°25'1212.1
2015-Aug-07 11:33N 36°53' E 012°40'1312.5
2015-Aug-07 10:33N 36°49' E 012°55'1212.3
2015-Aug-07 09:33N 36°46' E 013°10'1211.8
2015-Aug-07 08:33N 36°42' E 013°24'1211.9
2015-Aug-07 07:33N 36°39' E 013°38'1211.9
2015-Aug-07 06:33N 36°37' E 013°52'1212.2
2015-Aug-07 05:33N 36°32' E 014°07'1212.3
2015-Aug-07 04:33N 36°29' E 014°22'1212.0
2015-Aug-07 03:33N 36°25' E 014°35'1211.8
2015-Aug-07 02:33N 36°22' E 014°49'1212.1
2015-Aug-07 01:33N 36°20' E 015°04'1212.2
2015-Aug-07 00:33N 36°20' E 015°20'1211.7
2015-Aug-06 23:33N 36°20' E 015°34'1211.7
2015-Aug-06 22:33N 36°19' E 015°49'  

Dump ship's entire track history